createdAt,value
2018-07-11T00:01:10.282Z,4.90
2018-07-11T00:06:37.131Z,7.20
2018-07-11T00:09:08.015Z,4.40
2018-07-11T00:11:37.793Z,5.00
2018-07-11T00:14:07.505Z,3.50
2018-07-11T00:16:37.842Z,4.70
2018-07-11T00:19:07.831Z,4.63
2018-07-11T00:21:38.571Z,5.10
2018-07-11T00:24:27.544Z,6.07
2018-07-11T00:26:59.974Z,6.57
2018-07-11T00:29:31.419Z,5.07
2018-07-11T00:32:03.409Z,6.47
2018-07-11T00:34:33.793Z,4.50
2018-07-11T00:37:06.524Z,4.57
2018-07-11T00:39:37.918Z,4.10
2018-07-11T00:42:09.830Z,4.67
2018-07-11T00:44:40.821Z,6.67
2018-07-11T00:47:12.308Z,6.27
2018-07-11T00:49:43.247Z,5.10
2018-07-11T00:52:13.544Z,5.03
2018-07-11T00:54:43.475Z,5.13
2018-07-11T00:57:35.511Z,6.83
2018-07-11T01:00:07.083Z,4.20
2018-07-11T01:02:36.773Z,5.70
2018-07-11T01:05:06.447Z,5.43
2018-07-11T01:07:37.176Z,4.30
2018-07-11T01:10:07.013Z,4.97
2018-07-11T01:12:38.179Z,4.90
2018-07-11T01:15:08.961Z,6.37
2018-07-11T01:17:44.277Z,4.40
2018-07-11T01:20:27.213Z,4.63
2018-07-11T01:22:57.398Z,5.83
2018-07-11T01:25:28.123Z,4.77
2018-07-11T01:27:58.942Z,4.03
2018-07-11T01:30:29.687Z,4.60
2018-07-11T01:33:00.449Z,4.20
2018-07-11T01:35:40.768Z,9.07
2018-07-11T01:38:13.585Z,5.13
2018-07-11T01:40:45.673Z,4.80
2018-07-11T01:43:17.981Z,5.53
2018-07-11T01:45:52.368Z,5.73
2018-07-11T01:48:23.087Z,5.43
2018-07-11T01:50:55.969Z,5.10
2018-07-11T01:53:31.693Z,10.43
2018-07-11T01:56:02.220Z,5.93
2018-07-11T01:58:33.007Z,4.43
2018-07-11T02:01:04.831Z,5.30
2018-07-11T02:03:36.216Z,3.87
2018-07-11T02:06:13.303Z,4.97
2018-07-11T02:11:24.078Z,4.30
2018-07-11T02:13:55.197Z,4.47
2018-07-11T02:16:26.424Z,3.97
2018-07-11T02:18:58.333Z,4.30
2018-07-11T02:21:31.038Z,12.53
2018-07-11T02:30:01.863Z,5.00
2018-07-11T02:32:34.239Z,3.90
2018-07-11T02:35:08.746Z,6.13
2018-07-11T02:37:43.901Z,3.90
2018-07-11T02:43:12.003Z,5.27
2018-07-11T02:45:44.217Z,5.63
2018-07-11T02:48:14.416Z,4.73
2018-07-11T02:50:45.834Z,6.63
2018-07-11T02:56:11.635Z,3.77
2018-07-11T02:58:44.669Z,5.30
2018-07-11T03:01:16.818Z,5.37
2018-07-11T03:03:48.297Z,5.40
2018-07-11T03:06:18.118Z,3.97
2018-07-11T03:08:59.597Z,4.20
2018-07-11T03:11:29.489Z,4.67
2018-07-11T03:19:48.620Z,3.93
2018-07-11T03:22:19.269Z,5.23
2018-07-11T03:24:49.974Z,3.73
2018-07-11T03:27:20.563Z,3.93
2018-07-11T03:29:56.253Z,3.70
2018-07-11T03:32:26.962Z,4.50
2018-07-11T03:34:57.776Z,5.00
2018-07-11T03:37:36.759Z,7.03
2018-07-11T03:40:07.381Z,4.07
2018-07-11T03:47:42.710Z,4.80
2018-07-11T04:01:17.118Z,5.20
2018-07-11T04:04:54.166Z,5.97
2018-07-11T04:20:16.521Z,7.00
2018-07-11T04:26:02.169Z,7.03
2018-07-11T04:45:37.131Z,5.73
2018-07-11T04:48:48.580Z,7.80
2018-07-11T05:26:22.993Z,6.80
2018-07-11T05:29:17.350Z,8.60
2018-07-11T05:37:04.421Z,8.47
2018-07-11T08:17:42.754Z,9.70
2018-07-11T08:20:11.375Z,10.00
2018-07-11T08:23:18.627Z,8.20
2018-07-11T08:25:59.750Z,8.57
2018-07-11T08:30:45.249Z,10.80
2018-07-11T08:34:27.550Z,9.03
2018-07-11T08:37:08.144Z,7.93
2018-07-11T08:39:51.997Z,10.17
2018-07-11T08:42:46.126Z,11.77
2018-07-11T08:47:30.794Z,13.57
2018-07-11T08:50:43.114Z,8.70
2018-07-11T08:53:19.579Z,9.30
2018-07-11T08:58:13.835Z,9.07
2018-07-11T09:02:51.584Z,11.60
2018-07-11T09:05:40.353Z,10.37
2018-07-11T09:10:23.098Z,9.00
2018-07-11T09:13:06.801Z,11.60
2018-07-11T09:15:46.618Z,9.83
2018-07-11T09:20:34.921Z,9.53
2018-07-11T09:25:11.664Z,10.37
2018-07-11T09:27:40.345Z,9.57
2018-07-11T09:30:09.024Z,9.70
2018-07-11T09:32:37.702Z,12.90
2018-07-11T09:35:06.359Z,9.00
2018-07-11T09:37:35.038Z,7.83
2018-07-11T09:40:03.690Z,6.43
2018-07-11T09:42:32.335Z,6.23
2018-07-11T09:45:01.063Z,6.73
2018-07-11T09:47:30.008Z,9.70
2018-07-11T09:49:58.874Z,6.37
2018-07-11T09:52:27.536Z,7.17
2018-07-11T09:54:56.289Z,7.10
2018-07-11T09:57:30.220Z,9.83
2018-07-11T09:59:59.294Z,7.50
2018-07-11T10:02:28.391Z,6.80
2018-07-11T10:04:57.344Z,7.77
2018-07-11T10:07:26.828Z,11.20
2018-07-11T10:09:55.478Z,9.13
2018-07-11T10:12:24.054Z,9.90
2018-07-11T10:14:52.663Z,10.27
2018-07-11T10:17:21.260Z,8.77
2018-07-11T10:19:49.943Z,8.97
2018-07-11T10:22:18.714Z,12.30
2018-07-11T10:24:47.419Z,7.60
2018-07-11T10:27:16.207Z,6.80
2018-07-11T10:29:44.906Z,10.87
2018-07-11T10:32:13.556Z,7.10
2018-07-11T10:34:42.198Z,6.90
2018-07-11T10:37:10.970Z,10.13
2018-07-11T10:39:39.697Z,7.63
2018-07-11T10:42:08.369Z,7.83
2018-07-11T10:44:36.990Z,10.57
2018-07-11T10:47:10.555Z,7.03
2018-07-11T10:49:39.289Z,7.27
2018-07-11T10:52:08.375Z,5.87
2018-07-11T10:54:37.107Z,5.53
2018-07-11T10:57:05.797Z,6.23
2018-07-11T10:59:34.528Z,5.80
2018-07-11T11:02:02.774Z,5.70
2018-07-11T11:04:31.438Z,5.67
2018-07-11T11:07:00.079Z,8.43
2018-07-11T11:09:28.743Z,8.13
2018-07-11T11:11:57.379Z,7.13
2018-07-11T11:14:26.065Z,5.43
2018-07-11T11:16:54.698Z,5.23
2018-07-11T11:19:23.437Z,7.83
2018-07-11T11:21:52.236Z,4.90
2018-07-11T11:24:20.932Z,6.50
2018-07-11T11:26:49.506Z,6.03
2018-07-11T11:29:18.116Z,5.60
2018-07-11T11:31:46.866Z,6.23
2018-07-11T11:34:15.512Z,7.47
2018-07-11T11:36:44.222Z,7.40
2018-07-11T11:39:12.877Z,7.00
2018-07-11T11:41:41.547Z,4.97
2018-07-11T11:44:11.346Z,7.30
2018-07-11T11:46:40.062Z,6.60
2018-07-11T11:49:08.658Z,5.90
2018-07-11T11:51:36.879Z,4.97
2018-07-11T11:54:05.704Z,6.23
2018-07-11T11:56:34.438Z,5.27
2018-07-11T11:59:03.066Z,5.60
2018-07-11T12:01:31.719Z,5.30
2018-07-11T12:04:10.385Z,6.43
2018-07-11T12:06:39.013Z,5.07
2018-07-11T12:09:07.942Z,5.13
2018-07-11T12:11:36.611Z,5.73
2018-07-11T12:14:05.304Z,5.40
2018-07-11T12:16:33.939Z,4.83
2018-07-11T12:19:02.213Z,8.27
2018-07-11T12:21:30.517Z,7.23
2018-07-11T12:23:59.245Z,6.73
2018-07-11T12:26:27.999Z,4.93
2018-07-11T12:28:56.673Z,4.77
2018-07-11T12:31:25.314Z,5.53
2018-07-11T12:33:53.963Z,5.50
2018-07-11T12:36:22.637Z,5.33
2018-07-11T12:38:54.605Z,7.80
2018-07-11T12:41:23.365Z,8.70
2018-07-11T12:43:51.941Z,5.47
2018-07-11T12:46:20.605Z,5.23
2018-07-11T12:48:54.559Z,6.10
2018-07-11T12:51:23.215Z,6.17
2018-07-11T12:53:51.849Z,6.50
2018-07-11T12:56:20.523Z,5.90
2018-07-11T12:58:51.368Z,5.50
2018-07-11T13:01:20.017Z,5.20
2018-07-11T13:03:48.252Z,4.93
2018-07-11T13:06:16.554Z,5.53
2018-07-11T13:08:45.242Z,4.97
2018-07-11T13:11:13.870Z,3.83
2018-07-11T13:13:42.535Z,8.97
2018-07-11T13:16:17.108Z,6.73
2018-07-11T13:18:45.543Z,3.97
2018-07-11T13:21:14.213Z,3.73
2018-07-11T13:23:42.775Z,4.07
2018-07-11T13:26:11.579Z,7.20
2018-07-11T13:28:40.236Z,3.43
2018-07-11T13:31:09.149Z,3.77
2018-07-11T13:33:37.942Z,3.40
2018-07-11T13:36:12.783Z,4.30
2018-07-11T13:38:41.429Z,5.37
2018-07-11T13:41:10.084Z,5.63
2018-07-11T13:43:39.823Z,3.90
2018-07-11T13:46:08.526Z,4.07
2018-07-11T13:48:37.222Z,5.23
2018-07-11T13:51:06.119Z,5.23
2018-07-11T13:53:34.836Z,6.33
2018-07-11T13:56:09.624Z,5.30
2018-07-11T13:58:44.534Z,4.33
2018-07-11T14:01:13.392Z,5.67
2018-07-11T14:03:42.224Z,6.60
2018-07-11T14:06:10.847Z,4.90
2018-07-11T14:08:39.581Z,7.83
2018-07-11T14:11:08.281Z,4.47
2018-07-11T14:13:36.964Z,5.70
2018-07-11T14:16:05.621Z,6.13
2018-07-11T14:18:34.315Z,4.00
2018-07-11T14:21:02.969Z,3.17
2018-07-11T14:23:38.484Z,3.87
2018-07-11T14:26:07.457Z,4.00
2018-07-11T14:28:37.557Z,5.80
2018-07-11T14:31:06.279Z,6.70
2018-07-11T14:33:35.728Z,5.67
2018-07-11T14:36:04.398Z,5.00
2018-07-11T14:38:33.050Z,6.13
2018-07-11T14:41:02.872Z,6.27
2018-07-11T14:43:31.589Z,9.13
2018-07-11T14:46:00.356Z,5.63
2018-07-11T14:48:30.158Z,5.33
2018-07-11T14:51:00.695Z,6.30
2018-07-11T14:53:29.422Z,3.70
2018-07-11T14:55:58.108Z,5.30
2018-07-11T14:58:32.791Z,4.03
2018-07-11T15:01:01.470Z,3.53
2018-07-11T15:03:30.070Z,3.07
2018-07-11T15:05:58.873Z,3.30
2018-07-11T15:08:27.625Z,2.90
2018-07-11T15:10:58.265Z,4.03
2018-07-11T15:13:26.913Z,2.73
2018-07-11T15:15:55.689Z,4.93
2018-07-11T15:18:26.403Z,3.13
2018-07-11T15:20:56.035Z,3.37
2018-07-11T15:23:24.879Z,5.30
2018-07-11T15:25:55.614Z,7.00
2018-07-11T15:28:24.648Z,10.40
2018-07-11T15:30:53.361Z,2.80
2018-07-11T15:35:53.603Z,3.80
2018-07-11T15:38:22.322Z,3.30
2018-07-11T15:40:51.038Z,4.03
2018-07-11T15:43:19.832Z,2.40
2018-07-11T15:45:48.478Z,3.30
2018-07-11T15:48:17.187Z,2.03
2018-07-11T15:50:46.925Z,4.23
2018-07-11T15:53:16.265Z,9.30
2018-07-11T15:55:50.874Z,9.33
2018-07-11T15:58:20.546Z,3.03
2018-07-11T16:00:49.548Z,3.43
2018-07-11T16:03:19.327Z,3.30
2018-07-11T16:05:48.696Z,2.90
2018-07-11T16:08:20.300Z,3.00
2018-07-11T16:10:50.767Z,3.13
2018-07-11T16:13:19.539Z,3.20
2018-07-11T16:15:48.270Z,2.90
2018-07-11T16:18:16.630Z,2.80
2018-07-11T16:20:45.307Z,3.40
2018-07-11T16:23:16.099Z,2.33
2018-07-11T16:25:45.170Z,3.00
2018-07-11T16:28:13.833Z,2.90
2018-07-11T16:30:42.576Z,3.03
2018-07-11T16:33:11.237Z,2.63
2018-07-11T16:35:39.934Z,3.07
2018-07-11T16:38:08.587Z,2.70
2018-07-11T16:40:37.250Z,3.00
2018-07-11T16:43:06.092Z,2.30
2018-07-11T16:45:34.843Z,2.10
2018-07-11T16:48:03.575Z,3.10
2018-07-11T16:50:33.468Z,4.13
2018-07-11T16:53:01.790Z,5.60
2018-07-11T16:55:32.635Z,2.83
2018-07-11T16:58:01.361Z,3.83
2018-07-11T17:00:32.578Z,3.10
2018-07-11T17:03:07.902Z,3.63
2018-07-11T17:05:51.823Z,3.73
2018-07-11T17:08:28.431Z,2.47
2018-07-11T17:11:01.205Z,2.43
2018-07-11T17:13:30.004Z,2.53
2018-07-11T17:15:58.811Z,2.40
2018-07-11T17:18:34.782Z,2.80
2018-07-11T17:21:07.966Z,2.60
2018-07-11T17:23:43.029Z,5.87
2018-07-11T17:26:16.040Z,2.47
2018-07-11T17:28:44.768Z,2.40
2018-07-11T17:31:14.917Z,3.00
2018-07-11T17:33:43.613Z,2.53
2018-07-11T17:36:13.039Z,2.83
2018-07-11T17:38:41.982Z,3.10
2018-07-11T17:41:10.799Z,2.43
2018-07-11T17:43:40.195Z,2.77
2018-07-11T17:46:09.165Z,2.83
2018-07-11T17:49:48.745Z,3.40
2018-07-11T17:52:18.464Z,2.57
2018-07-11T17:55:04.900Z,2.80
2018-07-11T17:57:51.722Z,3.60
2018-07-11T18:00:33.867Z,2.80
2018-07-11T18:04:27.989Z,5.03
2018-07-11T18:07:05.804Z,2.90
2018-07-11T18:10:07.974Z,2.97
2018-07-11T18:12:45.290Z,2.80
2018-07-11T18:15:24.765Z,3.87
2018-07-11T18:19:07.765Z,3.50
2018-07-11T18:21:47.505Z,6.00
2018-07-11T18:24:23.894Z,4.70
2018-07-11T18:27:07.689Z,5.03
2018-07-11T18:29:45.061Z,3.50
2018-07-11T18:32:24.238Z,3.53
2018-07-11T18:37:09.571Z,2.80
2018-07-11T18:39:50.749Z,3.13
2018-07-11T18:42:33.020Z,2.30
2018-07-11T18:45:11.374Z,4.63
2018-07-11T18:47:50.071Z,3.60
2018-07-11T18:50:37.030Z,3.00
2018-07-11T18:53:17.595Z,3.40
2018-07-11T18:56:07.610Z,2.70
2018-07-11T18:58:42.948Z,2.67
2018-07-11T19:01:18.967Z,3.17
2018-07-11T19:04:59.150Z,2.43
2018-07-11T19:07:35.617Z,3.80
2018-07-11T19:10:06.646Z,3.07
2018-07-11T19:12:53.955Z,3.43
2018-07-11T19:15:37.086Z,3.70
2018-07-11T19:19:11.459Z,3.20
2018-07-11T19:22:02.603Z,2.87
2018-07-11T19:24:42.385Z,2.87
2018-07-11T19:27:16.709Z,2.93
2018-07-11T19:29:57.501Z,3.00
2018-07-11T19:32:31.358Z,3.73
2018-07-11T19:36:10.480Z,3.10
2018-07-11T19:38:45.415Z,4.20
2018-07-11T19:41:18.982Z,3.57
2018-07-11T19:43:58.582Z,2.77
2018-07-11T19:46:41.928Z,4.17
2018-07-11T19:49:32.100Z,4.03
2018-07-11T19:54:29.335Z,4.43
2018-07-11T19:57:00.902Z,3.70
2018-07-11T19:59:29.537Z,3.27
2018-07-11T20:01:58.301Z,3.23
2018-07-11T20:04:27.062Z,3.97
2018-07-11T20:06:55.744Z,3.60
2018-07-11T20:09:24.465Z,4.03
2018-07-11T20:11:53.249Z,5.47
2018-07-11T20:14:21.858Z,3.30
2018-07-11T20:16:50.412Z,2.97
2018-07-11T20:19:19.093Z,3.07
2018-07-11T20:21:47.704Z,3.13
2018-07-11T20:24:16.404Z,3.03
2018-07-11T20:26:45.041Z,3.10
2018-07-11T20:29:13.653Z,4.27
2018-07-11T20:31:42.385Z,3.27
2018-07-11T20:34:11.051Z,3.10
2018-07-11T20:36:39.689Z,5.27
2018-07-11T20:39:08.298Z,3.60
2018-07-11T20:41:37.043Z,3.57
2018-07-11T20:44:05.670Z,4.20
2018-07-11T20:46:34.658Z,6.40
2018-07-11T20:49:08.857Z,3.20
2018-07-11T20:51:37.395Z,3.17
2018-07-11T20:54:06.218Z,9.20
2018-07-11T20:56:34.883Z,5.00
2018-07-11T20:59:14.492Z,5.50
2018-07-11T21:01:54.566Z,3.77
2018-07-11T21:04:31.270Z,3.20
2018-07-11T21:07:14.024Z,4.60
2018-07-11T21:09:57.176Z,3.13
2018-07-11T21:12:45.310Z,4.50
2018-07-11T21:17:39.157Z,2.93
2018-07-11T21:20:07.746Z,3.10
2018-07-11T21:22:36.408Z,3.43
2018-07-11T21:25:05.044Z,5.63
2018-07-11T21:27:33.798Z,3.87
2018-07-11T21:30:02.386Z,3.30
2018-07-11T21:32:30.982Z,3.33
2018-07-11T21:34:59.709Z,4.63
2018-07-11T21:37:28.419Z,3.90
2018-07-11T21:39:57.078Z,4.17
2018-07-11T21:42:25.666Z,6.30
2018-07-11T21:44:54.359Z,5.03
2018-07-11T21:47:22.967Z,3.40
2018-07-11T21:49:51.579Z,6.10
2018-07-11T21:52:20.216Z,4.33
2018-07-11T21:54:48.848Z,4.83
2018-07-11T21:57:17.478Z,6.13
2018-07-11T21:59:46.203Z,3.60
2018-07-11T22:02:14.886Z,4.20
2018-07-11T22:04:43.517Z,3.70
2018-07-11T22:07:12.047Z,4.10
2018-07-11T22:09:40.705Z,4.47
2018-07-11T22:12:09.345Z,3.70
2018-07-11T22:14:37.976Z,4.40
2018-07-11T22:17:17.890Z,4.37
2018-07-11T22:19:45.294Z,3.43
2018-07-11T22:22:12.729Z,3.90
2018-07-11T22:24:40.135Z,4.23
2018-07-11T22:27:07.576Z,5.83
2018-07-11T22:29:35.005Z,5.70
2018-07-11T22:32:02.372Z,4.00
2018-07-11T22:34:29.811Z,4.20
2018-07-11T22:36:57.205Z,6.30
2018-07-11T22:39:24.635Z,5.03
2018-07-11T22:41:52.056Z,4.27
2018-07-11T22:44:19.816Z,10.97
2018-07-11T22:46:47.148Z,4.50
2018-07-11T22:49:14.549Z,4.33
2018-07-11T22:51:41.958Z,7.40
2018-07-11T22:54:09.413Z,5.40
2018-07-11T22:56:36.816Z,5.07
2018-07-11T22:59:04.578Z,7.90
2018-07-11T23:01:31.934Z,4.30
2018-07-11T23:03:59.585Z,4.90
2018-07-11T23:06:26.965Z,4.50
2018-07-11T23:08:54.342Z,4.60
2018-07-11T23:11:21.774Z,4.17
2018-07-11T23:13:49.294Z,4.50
2018-07-11T23:16:16.702Z,5.17
2018-07-11T23:18:44.139Z,5.47
2018-07-11T23:21:11.503Z,4.67
2018-07-11T23:23:38.915Z,4.83
2018-07-11T23:26:06.313Z,4.60
2018-07-11T23:28:33.741Z,4.93
2018-07-11T23:31:01.148Z,4.80
2018-07-11T23:33:28.570Z,6.10
2018-07-11T23:35:55.968Z,4.97
2018-07-11T23:38:23.398Z,5.57
2018-07-11T23:40:50.823Z,4.77
2018-07-11T23:43:18.252Z,7.00
2018-07-11T23:45:45.643Z,6.37
2018-07-11T23:48:13.036Z,4.97
2018-07-11T23:50:40.483Z,5.37
2018-07-11T23:53:07.906Z,5.80
2018-07-11T23:55:35.301Z,5.20
2018-07-11T23:58:02.675Z,5.80
